Time;durP1;ratioP1;P1;durP2;ratioP2;P2;SDS_P1;SDS_P2;PMS_P1;PMS_P2;Temp;Humidity;BMP_temperature;BMP_pressure;BME280_temperature;BME280_humidity;BME280_pressure;Samples;Min_cycle;Max_cycle;Signal;HPM_P1;HPM_P2
2022/06/03 00:01:08;;;;;;;1.90;0.95;;;;;;;17.71;47.52;100772.44;5071291;28;20512;-87
2022/06/03 00:04:03;;;;;;;0.88;0.68;;;;;;;17.67;47.61;100771.88;5071808;28;20032;-87
2022/06/03 00:06:38;;;;;;;1.55;0.60;;;;;;;17.61;47.96;100772.47;5063023;28;20091;-87
2022/06/03 00:09:27;;;;;;;1.42;0.70;;;;;;;17.42;48.56;100771.50;5052215;28;20021;-87
2022/06/03 00:12:11;;;;;;;0.80;0.60;;;;;;;17.38;49.12;100772.75;5051694;28;20024;-87
2022/06/03 00:15:06;;;;;;;0.93;0.80;;;;;;;17.28;49.51;100765.75;5051730;28;20032;-87
2022/06/03 00:17:31;;;;;;;1.90;0.90;;;;;;;17.31;48.23;100770.78;5051750;28;20025;-87
2022/06/03 00:20:24;;;;;;;2.00;0.80;;;;;;;17.05;47.50;100768.69;5053572;28;20475;-87
2022/06/03 00:22:57;;;;;;;1.80;0.82;;;;;;;16.89;47.40;100771.84;5071698;28;20068;-87
2022/06/03 00:26:13;;;;;;;0.80;0.60;;;;;;;16.94;47.70;100769.66;5070601;28;20367;-87
2022/06/03 00:28:44;;;;;;;4.15;0.90;;;;;;;16.77;47.45;100772.91;5052987;28;20040;-86
2022/06/03 00:32:04;;;;;;;1.80;0.93;;;;;;;16.37;48.02;100771.94;5070869;28;20025;-85
2022/06/03 00:34:59;;;;;;;1.10;0.70;;;;;;;16.71;47.60;100768.16;5071642;28;20288;-85
2022/06/03 00:37:25;;;;;;;0.88;0.60;;;;;;;16.68;47.89;100763.94;5071171;28;20056;-86
2022/06/03 00:39:59;;;;;;;0.65;0.65;;;;;;;16.60;48.41;100769.91;5071754;28;20431;-85
2022/06/03 00:42:33;;;;;;;2.33;1.45;;;;;;;16.44;48.89;100775.72;5071480;28;20538;-85
2022/06/03 00:45:08;;;;;;;0.82;0.70;;;;;;;15.67;49.55;100774.28;5071944;28;20032;-85
2022/06/03 00:47:46;;;;;;;1.23;0.70;;;;;;;15.53;49.91;100779.06;5071580;28;20107;-85
2022/06/03 00:50:22;;;;;;;1.10;0.90;;;;;;;15.81;49.61;100769.66;5071609;28;20024;-85
2022/06/03 00:53:09;;;;;;;1.15;0.70;;;;;;;15.88;50.29;100775.28;5054826;28;20029;-85
2022/06/03 00:55:56;;;;;;;3.08;0.80;;;;;;;15.65;49.64;100778.84;5051175;28;20032;-86
2022/06/03 00:58:30;;;;;;;1.00;0.80;;;;;;;15.17;49.86;100774.00;5051260;28;20121;-85
2022/06/03 01:01:08;;;;;;;1.65;0.80;;;;;;;15.59;49.21;100775.91;5051382;28;20032;-85
2022/06/03 01:04:03;;;;;;;1.92;0.95;;;;;;;15.62;49.96;100770.34;5051318;28;20437;-85
2022/06/03 01:07:04;;;;;;;1.52;1.25;;;;;;;15.55;49.88;100774.47;5051710;28;20093;-85
2022/06/03 01:09:51;;;;;;;2.88;1.02;;;;;;;15.56;50.71;100773.50;5051380;28;20398;-85
2022/06/03 01:12:39;;;;;;;4.03;1.00;;;;;;;15.72;50.30;100771.25;5051313;28;20049;-85
2022/06/03 01:15:18;;;;;;;0.80;0.63;;;;;;;15.82;50.70;100766.91;5051396;28;20036;-85
2022/06/03 01:18:08;;;;;;;2.28;1.10;;;;;;;15.79;50.81;100767.16;5051308;28;20021;-86
2022/06/03 01:20:43;;;;;;;1.63;1.08;;;;;;;15.18;51.11;100764.25;5051347;28;20398;-86
2022/06/03 01:23:56;;;;;;;2.03;1.00;;;;;;;15.34;51.04;100762.03;5069420;28;20021;-85
2022/06/03 01:26:35;;;;;;;1.13;1.02;;;;;;;15.42;51.18;100762.25;5051386;28;20090;-85
2022/06/03 01:29:25;;;;;;;1.67;1.17;;;;;;;15.49;52.53;100767.88;5051310;28;20033;-85
2022/06/03 01:32:17;;;;;;;1.00;0.82;;;;;;;15.43;52.72;100768.38;5050885;28;20029;-86
2022/06/03 01:35:17;;;;;;;1.08;0.98;;;;;;;15.37;53.19;100766.25;5051089;28;20032;-85
2022/06/03 01:37:56;;;;;;;1.17;0.90;;;;;;;15.34;53.99;100758.56;5051054;28;20436;-86
2022/06/03 01:40:24;;;;;;;2.28;0.98;;;;;;;15.36;53.98;100752.16;5059366;28;20032;-85
2022/06/03 01:43:13;;;;;;;1.10;0.90;;;;;;;15.41;53.70;100754.44;5070865;28;20035;-85
2022/06/03 01:46:19;;;;;;;1.52;1.08;;;;;;;15.41;54.43;100757.09;5071034;28;20064;-85
2022/06/03 01:48:47;;;;;;;1.67;1.08;;;;;;;15.41;55.27;100762.38;5073640;28;20085;-85
2022/06/03 01:51:34;;;;;;;2.05;1.17;;;;;;;15.41;54.83;100755.28;5074111;28;20060;-85
2022/06/03 01:54:40;;;;;;;1.50;1.15;;;;;;;15.36;54.44;100753.97;5074186;28;20082;-85
2022/06/03 01:57:39;;;;;;;2.83;1.20;;;;;;;15.44;55.05;100755.03;5074484;28;20111;-85
2022/06/03 02:00:13;;;;;;;1.70;1.10;;;;;;;15.54;54.63;100744.53;5074388;28;20402;-85
2022/06/03 02:03:19;;;;;;;2.28;1.20;;;;;;;15.83;52.98;100743.91;5074276;28;20025;-85
2022/06/03 02:06:13;;;;;;;1.58;0.95;;;;;;;16.02;51.28;100735.25;5074318;28;20037;-85
2022/06/03 02:09:00;;;;;;;2.00;1.20;;;;;;;15.59;52.14;100722.97;5074560;28;20425;-85
2022/06/03 02:11:40;;;;;;;1.08;0.90;;;;;;;15.76;54.10;100729.53;5074217;28;20440;-85
2022/06/03 02:14:11;;;;;;;3.70;1.17;;;;;;;15.78;53.37;100720.47;5074104;28;20078;-85
2022/06/03 02:16:50;;;;;;;2.08;1.42;;;;;;;15.89;53.19;100718.72;5074322;28;20024;-85
2022/06/03 02:20:01;;;;;;;2.15;1.25;;;;;;;15.68;53.48;100716.91;5074002;28;20402;-85
2022/06/03 02:22:51;;;;;;;1.77;1.05;;;;;;;15.76;53.41;100713.66;5059552;28;20479;-85
2022/06/03 02:25:28;;;;;;;3.08;1.15;;;;;;;15.89;53.74;100716.06;5053856;28;20489;-85
2022/06/03 02:28:12;;;;;;;1.20;1.10;;;;;;;15.92;53.97;100708.72;5053843;28;20025;-85
2022/06/03 02:31:02;;;;;;;4.75;1.10;;;;;;;16.03;54.48;100713.06;5053795;28;20495;-85
2022/06/03 02:34:02;;;;;;;1.27;1.08;;;;;;;16.47;52.89;100703.06;5053899;28;20526;-85
2022/06/03 02:36:52;;;;;;;2.53;1.35;;;;;;;16.64;52.95;100701.56;5052375;28;20080;-85
2022/06/03 02:39:37;;;;;;;1.58;1.20;;;;;;;16.56;53.30;100696.94;5053647;28;20548;-85
2022/06/03 02:42:34;;;;;;;2.15;0.98;;;;;;;16.50;52.59;100696.66;5053712;28;20398;-85
2022/06/03 02:45:14;;;;;;;1.95;0.95;;;;;;;16.55;53.37;100692.63;5053588;28;20075;-85
2022/06/03 02:48:06;;;;;;;1.40;1.05;;;;;;;16.52;53.15;100695.53;5053524;28;20041;-85
2022/06/03 02:50:38;;;;;;;1.60;1.20;;;;;;;16.47;52.85;100692.47;5053522;28;20033;-86
2022/06/03 02:53:25;;;;;;;2.25;1.25;;;;;;;16.09;54.54;100688.69;5054495;28;20032;-85
2022/06/03 02:56:15;;;;;;;3.75;1.20;;;;;;;16.03;54.95;100683.94;5053449;28;20025;-85
2022/06/03 02:59:11;;;;;;;1.42;1.02;;;;;;;16.21;54.96;100685.00;5053278;28;20029;-85
2022/06/03 03:01:39;;;;;;;2.05;1.70;;;;;;;16.40;53.14;100678.91;5053423;28;20087;-85
2022/06/03 03:04:27;;;;;;;1.60;1.35;;;;;;;16.54;52.92;100671.56;5053348;28;20094;-86
2022/06/03 03:07:01;;;;;;;1.38;1.27;;;;;;;16.52;53.35;100681.47;5057641;28;20032;-85
2022/06/03 03:09:35;;;;;;;3.53;1.58;;;;;;;16.51;52.70;100680.63;5073128;28;20035;-86
2022/06/03 03:12:19;;;;;;;2.95;1.42;;;;;;;16.58;53.55;100679.09;5072904;28;20035;-85
2022/06/03 03:14:57;;;;;;;3.33;1.52;;;;;;;16.53;53.62;100686.63;5072941;28;20020;-85
2022/06/03 03:17:43;;;;;;;2.03;1.30;;;;;;;16.20;54.34;100678.00;5072924;28;20101;-85
2022/06/03 03:20:32;;;;;;;2.83;1.73;;;;;;;16.06;55.08;100673.09;5072905;28;20652;-85
2022/06/03 03:23:25;;;;;;;2.20;1.95;;;;;;;16.04;55.37;100675.03;5071023;28;20491;-85
2022/06/03 03:26:01;;;;;;;3.63;2.38;;;;;;;16.05;55.18;100676.69;5072717;28;20032;-86
2022/06/03 03:28:48;;;;;;;3.22;2.45;;;;;;;15.97;54.40;100664.13;5072814;28;20447;-85
2022/06/03 03:31:19;;;;;;;4.22;2.63;;;;;;;16.02;54.77;100669.03;5072347;28;20024;-85
2022/06/03 03:34:12;;;;;;;5.20;2.63;;;;;;;16.09;54.74;100666.69;5072470;28;20058;-85
2022/06/03 03:36:55;;;;;;;4.63;3.30;;;;;;;16.10;55.10;100668.38;5072524;28;20032;-85
2022/06/03 03:39:47;;;;;;;5.20;3.58;;;;;;;16.07;55.39;100666.81;5072446;28;20436;-85
2022/06/03 03:42:25;;;;;;;4.63;3.85;;;;;;;16.10;56.19;100669.19;5072380;28;20099;-85
2022/06/03 03:45:10;;;;;;;5.05;3.72;;;;;;;16.18;55.17;100671.19;5072531;28;20029;-85
2022/06/03 03:47:44;;;;;;;6.55;3.72;;;;;;;16.16;55.26;100660.72;5072022;28;20453;-85
2022/06/03 03:50:09;;;;;;;4.25;3.60;;;;;;;16.20;56.27;100666.59;5072475;28;20021;-85
2022/06/03 03:52:51;;;;;;;6.70;3.70;;;;;;;16.23;57.51;100664.50;5061784;28;20483;-85
2022/06/03 03:55:16;;;;;;;;;;;;;;;16.42;57.47;100663.72;5052650;28;20063;-85
2022/06/03 03:58:23;;;;;;;4.67;3.90;;;;;;;16.71;55.80;100659.44;5051920;28;19952;-85
2022/06/03 04:01:06;;;;;;;4.93;3.72;;;;;;;16.81;55.27;100662.94;5052125;28;20048;-85
2022/06/03 04:03:51;;;;;;;4.30;3.38;;;;;;;16.77;55.90;100657.06;5052182;28;20471;-85
2022/06/03 04:06:37;;;;;;;5.30;3.75;;;;;;;16.87;54.72;100657.13;5052071;28;20167;-85
2022/06/03 04:09:37;;;;;;;4.35;3.20;;;;;;;16.93;55.12;100661.03;5052285;28;20396;-85
2022/06/03 04:12:13;;;;;;;4.50;3.47;;;;;;;16.93;55.52;100659.22;5051698;28;20029;-85
2022/06/03 04:14:39;;;;;;;5.28;3.17;;;;;;;16.94;55.63;100668.84;5052037;28;20033;-85
2022/06/03 04:17:41;;;;;;;7.65;3.72;;;;;;;16.91;54.59;100668.28;5051731;28;20106;-85
2022/06/03 04:20:54;;;;;;;9.95;4.38;;;;;;;16.94;53.16;100665.34;5051942;28;20029;-85
2022/06/03 04:23:39;;;;;;;9.52;4.30;;;;;;;17.17;51.44;100666.75;5060565;28;20055;-85
2022/06/03 04:26:35;;;;;;;8.15;4.47;;;;;;;17.22;51.02;100658.38;5071846;28;20021;-85
2022/06/03 04:29:34;;;;;;;5.28;3.88;;;;;;;17.18;51.16;100667.56;5071903;28;20073;-86
2022/06/03 04:32:30;;;;;;;7.00;3.80;;;;;;;17.04;53.32;100666.19;5070524;28;20025;-85
2022/06/03 04:35:14;;;;;;;5.95;3.30;;;;;;;16.83;53.95;100671.63;5071816;28;20020;-85
2022/06/03 04:37:39;;;;;;;6.82;3.50;;;;;;;16.84;54.79;100670.63;5070100;28;20433;-86
2022/06/03 04:40:26;;;;;;;4.18;3.38;;;;;;;16.78;55.16;100664.03;5071679;28;20028;-85
2022/06/03 04:43:06;;;;;;;4.32;2.95;;;;;;;16.89;54.73;100671.06;5071578;28;20440;-85
2022/06/03 04:45:54;;;;;;;5.65;3.60;;;;;;;16.85;55.23;100667.03;5072133;28;20060;-85
2022/06/03 04:48:25;;;;;;;6.18;3.13;;;;;;;16.89;55.89;100673.72;5071820;28;20028;-85
2022/06/03 04:51:15;;;;;;;6.80;3.63;;;;;;;16.93;55.68;100666.34;5071749;28;20036;-85
2022/06/03 04:53:59;;;;;;;3.83;3.38;;;;;;;16.99;56.02;100673.72;5070952;28;20035;-86
2022/06/03 04:56:27;;;;;;;6.65;4.07;;;;;;;16.98;55.05;100680.88;5071402;28;20059;-85
2022/06/03 04:59:20;;;;;;;5.28;3.53;;;;;;;17.00;54.56;100688.66;5070315;28;20488;-85
2022/06/03 05:02:13;;;;;;;4.50;3.10;;;;;;;17.02;54.49;100687.56;5071460;28;20028;-85
2022/06/03 05:05:09;;;;;;;4.80;3.55;;;;;;;17.08;54.08;100687.97;5071326;28;20056;-85
2022/06/03 05:07:43;;;;;;;3.70;2.58;;;;;;;17.43;53.18;100685.56;5071341;28;20036;-85
2022/06/03 05:10:44;;;;;;;5.93;3.08;;;;;;;17.68;53.56;100690.44;5071414;28;20017;-86
2022/06/03 05:13:18;;;;;;;6.43;4.00;;;;;;;17.86;53.14;100690.56;5071203;28;20107;-86
2022/06/03 05:16:32;;;;;;;4.30;3.17;;;;;;;17.98;53.18;100692.88;5071383;28;20103;-86
2022/06/03 05:18:57;;;;;;;5.68;3.03;;;;;;;17.95;53.72;100694.97;5051224;28;20419;-86
2022/06/03 05:21:59;;;;;;;8.43;6.68;;;;;;;17.82;53.10;100688.13;5070244;28;20024;-86
2022/06/03 05:24:58;;;;;;;7.20;5.65;;;;;;;18.18;53.47;100688.31;5055130;28;20529;-86
2022/06/03 05:27:50;;;;;;;9.52;6.95;;;;;;;17.86;53.43;100691.38;5055133;28;20039;-86
2022/06/03 05:30:36;;;;;;;9.88;7.07;;;;;;;17.80;53.99;100695.41;5055019;28;20052;-85
2022/06/03 05:33:23;;;;;;;13.43;8.07;;;;;;;18.03;53.53;100697.78;5054901;28;20025;-86
2022/06/03 05:36:20;;;;;;;16.25;8.60;;;;;;;17.66;54.65;100697.72;5054935;28;20029;-86
2022/06/03 05:39:04;;;;;;;12.48;8.27;;;;;;;17.64;54.64;100700.50;5050286;28;20052;-85
2022/06/03 05:45:02;;;;;;;11.80;8.75;;;;;;;18.08;53.79;100698.16;5054873;28;20502;-85
2022/06/03 05:47:39;;;;;;;9.27;8.00;;;;;;;18.28;53.85;100696.25;5054620;28;20029;-86
2022/06/03 05:50:15;;;;;;;10.73;9.63;;;;;;;18.11;53.77;100705.84;5054654;28;20384;-86
2022/06/03 05:52:59;;;;;;;15.75;10.23;;;;;;;18.24;53.67;100706.31;5067726;28;20032;-86
2022/06/03 05:55:36;;;;;;;12.55;9.63;;;;;;;17.88;54.67;100699.22;5074480;28;20033;-86
2022/06/03 05:58:13;;;;;;;12.18;9.77;;;;;;;18.41;52.84;100696.75;5074496;28;20492;-86
2022/06/03 06:00:43;;;;;;;13.10;10.18;;;;;;;18.47;53.08;100695.31;5074383;28;20040;-86
2022/06/03 06:03:30;;;;;;;10.32;9.18;;;;;;;18.46;53.52;100693.63;5074325;28;20501;-86
2022/06/03 06:06:15;;;;;;;10.32;9.18;;;;;;;18.93;52.08;100692.66;5071229;28;20036;-86
2022/06/03 06:09:18;;;;;;;11.05;9.38;;;;;;;19.20;51.51;100695.25;5074153;28;20028;-85
2022/06/03 06:12:07;;;;;;;10.63;9.27;;;;;;;19.39;50.42;100702.22;5072396;28;20032;-86
2022/06/03 06:15:11;;;;;;;9.73;8.48;;;;;;;19.54;49.98;100701.66;5073770;28;20544;-86
2022/06/03 06:18:10;;;;;;;10.98;9.15;;;;;;;19.44;50.30;100703.59;5068101;28;20048;-86
2022/06/03 06:20:38;;;;;;;12.57;8.93;;;;;;;19.89;49.44;100689.28;5069072;28;20020;-86
2022/06/03 06:23:21;;;;;;;10.52;9.05;;;;;;;20.23;48.76;100686.59;5068156;28;20032;-89
2022/06/03 06:26:11;;;;;;;8.50;7.63;;;;;;;20.63;47.34;100689.59;5069172;28;20104;-87
2022/06/03 06:28:58;;;;;;;7.80;6.88;;;;;;;20.77;46.88;100689.81;5069383;28;20032;-88
2022/06/03 06:31:38;;;;;;;9.85;7.45;;;;;;;20.96;46.68;100687.81;5069558;28;20029;-88
2022/06/03 06:34:12;;;;;;;11.50;7.25;;;;;;;21.49;45.81;100681.19;5067348;28;20364;-87
2022/06/03 06:37:07;;;;;;;10.25;7.75;;;;;;;23.91;40.73;100677.59;5068542;28;20035;-88
2022/06/03 06:39:55;;;;;;;8.43;6.22;;;;;;;24.52;39.23;100675.50;5062482;28;20036;-88
2022/06/03 06:42:54;;;;;;;8.95;6.85;;;;;;;26.08;36.06;100680.94;5067889;28;20112;-88
2022/06/03 06:45:31;;;;;;;10.25;7.53;;;;;;;25.77;36.04;100686.75;5068531;28;20033;-88
2022/06/03 06:48:14;;;;;;;10.95;6.63;;;;;;;24.81;37.89;100689.03;5068347;28;20067;-87
2022/06/03 06:50:54;;;;;;;7.90;6.95;;;;;;;24.03;39.13;100692.22;5058084;28;20428;-88
2022/06/03 06:53:25;;;;;;;7.20;6.13;;;;;;;23.41;40.22;100705.88;5047998;28;20479;-88
2022/06/03 06:56:21;;;;;;;7.15;6.03;;;;;;;23.48;40.09;100701.44;5063598;28;20032;-88
2022/06/03 06:58:55;;;;;;;6.68;5.97;;;;;;;23.33;40.94;100696.88;5068265;28;20032;-87
2022/06/03 07:01:25;;;;;;;7.80;5.78;;;;;;;23.57;41.07;100697.69;5067969;28;20488;-88
2022/06/03 07:04:29;;;;;;;8.45;6.60;;;;;;;24.15;40.23;100682.66;5067733;28;20021;-86
2022/06/03 07:07:06;;;;;;;10.40;7.15;;;;;;;24.22;40.00;100679.25;5025200;28;20026;-87
2022/06/03 07:09:41;;;;;;;13.10;7.22;;;;;;;24.60;39.60;100687.16;5059074;28;20045;-87
2022/06/03 07:12:13;;;;;;;10.00;7.40;;;;;;;23.95;40.76;100701.19;5066234;28;20024;-87
2022/06/03 07:14:55;;;;;;;10.35;6.43;;;;;;;24.20;40.46;100708.94;5067585;28;20040;-87
2022/06/03 07:20:47;;;;;;;8.60;6.57;;;;;;;24.70;39.07;100701.94;5071843;28;20084;-87
2022/06/03 07:23:44;;;;;;;10.07;6.72;;;;;;;24.80;37.97;100698.91;5065906;28;20036;-88
2022/06/03 07:26:14;;;;;;;12.20;7.70;;;;;;;25.03;37.51;100697.91;5069842;28;20035;-86
2022/06/03 07:28:52;;;;;;;9.23;6.70;;;;;;;25.80;37.11;100693.59;5069626;28;20037;-86
2022/06/03 07:31:29;;;;;;;9.77;6.50;;;;;;;26.56;35.80;100693.56;5070906;28;20269;-87
2022/06/03 07:34:03;;;;;;;10.15;7.50;;;;;;;25.73;36.76;100651.34;5061834;28;20482;-86
2022/06/03 07:36:45;;;;;;;7.45;6.50;;;;;;;28.11;32.76;100677.22;5072228;28;20033;-86
2022/06/03 07:39:23;;;;;;;8.90;6.55;;;;;;;26.25;36.05;100688.69;5067992;28;20025;-86
2022/06/03 07:42:36;;;;;;;10.48;7.97;;;;;;;26.08;36.28;100689.00;5052461;28;20028;-87
2022/06/03 07:45:29;;;;;;;8.20;5.93;;;;;;;27.57;34.50;100672.97;5065648;28;20108;-87
2022/06/03 07:47:57;;;;;;;7.78;5.95;;;;;;;28.09;33.93;100655.84;5072308;28;20577;-87
2022/06/03 07:50:26;;;;;;;8.25;5.82;;;;;;;27.57;34.42;100679.22;5071135;28;20032;-87
2022/06/03 07:52:58;;;;;;;7.55;6.35;;;;;;;28.15;32.84;100664.13;5069739;28;20051;-86
2022/06/03 07:55:26;;;;;;;10.98;5.53;;;;;;;28.14;32.80;100671.41;5071993;28;20029;-87
2022/06/03 07:57:58;;;;;;;6.10;5.00;;;;;;;27.93;34.21;100671.69;5070652;28;20028;-87
2022/06/03 08:00:24;;;;;;;6.18;4.93;;;;;;;27.66;35.26;100674.41;5071758;28;20415;-87
2022/06/03 08:03:20;;;;;;;7.97;6.35;;;;;;;27.74;34.73;100673.34;5057792;28;20021;-87
2022/06/03 08:05:48;;;;;;;6.95;5.47;;;;;;;29.03;32.91;100663.44;5051703;28;20120;-87
2022/06/03 08:11:23;;;;;;;6.85;5.68;;;;;;;29.38;32.09;100662.94;5070768;28;20048;-87
2022/06/03 08:13:51;;;;;;;6.43;5.47;;;;;;;29.97;31.97;100669.63;5063683;28;20090;-88
2022/06/03 08:16:20;;;;;;;7.60;4.72;;;;;;;29.55;32.25;100668.63;5071449;28;20028;-88
2022/06/03 08:18:45;;;;;;;5.65;4.10;;;;;;;30.58;30.64;100661.59;5071408;28;20032;-88
2022/06/03 08:21:21;;;;;;;9.68;5.68;;;;;;;28.64;33.37;100670.78;5068721;28;20515;-87
2022/06/03 08:23:47;;;;;;;10.02;6.18;;;;;;;28.92;32.48;100659.56;5058593;28;20033;-88
2022/06/03 08:26:20;;;;;;;8.57;4.80;;;;;;;28.27;34.08;100667.81;5062168;28;20021;-88
2022/06/03 08:28:53;;;;;;;7.15;5.10;;;;;;;28.55;33.87;100669.34;5070560;28;20028;-88
2022/06/03 08:31:22;;;;;;;8.52;5.40;;;;;;;29.95;32.69;100669.03;5065976;28;20112;-89
2022/06/03 08:33:54;;;;;;;13.32;6.03;;;;;;;29.70;32.72;100670.94;5054529;28;20016;-90
2022/06/03 08:36:25;;;;;;;6.18;4.50;;;;;;;31.41;30.13;100665.31;5066277;28;20024;-88
2022/06/03 08:39:15;;;;;;;8.47;4.53;;;;;;;30.71;31.32;100669.53;5057177;28;20114;-89
2022/06/03 08:42:08;;;;;;;8.75;4.78;;;;;;;31.86;29.69;100669.31;5054135;28;20475;-88
2022/06/03 08:45:18;;;;;;;10.70;4.68;;;;;;;32.35;29.32;100665.16;5065081;28;20036;-88
2022/06/03 08:47:54;;;;;;;8.93;4.32;;;;;;;31.71;29.44;100661.66;5065571;28;20410;-89
2022/06/03 08:50:35;;;;;;;7.65;4.68;;;;;;;32.90;28.63;100663.72;5071305;28;20100;-92
2022/06/03 08:53:18;;;;;;;7.43;4.03;;;;;;;34.66;26.05;100659.56;5070913;28;20068;-92
2022/06/03 08:55:52;;;;;;;7.75;4.47;;;;;;;33.97;26.68;100658.25;5071305;28;20570;-92
2022/06/03 08:58:29;;;;;;;6.80;4.82;;;;;;;35.49;25.78;100659.94;5074965;28;20040;-91
2022/06/03 09:01:06;;;;;;;5.47;4.25;;;;;;;37.22;24.64;100652.47;5075194;28;20020;-93
2022/06/03 09:03:42;;;;;;;6.30;4.80;;;;;;;38.08;23.22;100650.56;5072210;28;20032;-92
2022/06/03 09:06:28;;;;;;;8.98;5.50;;;;;;;38.64;21.50;100637.59;5075088;28;20039;-92
2022/06/03 09:09:15;;;;;;;6.82;5.13;;;;;;;38.52;22.95;100637.97;5072980;28;20031;-92
2022/06/03 09:11:46;;;;;;;7.28;4.00;;;;;;;37.27;23.60;100624.28;5067733;28;20025;-93
2022/06/03 09:14:21;;;;;;;6.85;4.85;;;;;;;37.28;25.43;100626.72;5073910;28;20387;-93
2022/06/03 09:16:49;;;;;;;10.45;4.85;;;;;;;37.15;22.96;100626.47;5074682;28;20428;-92
2022/06/03 09:19:21;;;;;;;7.20;5.32;;;;;;;37.15;23.57;100624.56;5074124;28;20028;-92
2022/06/03 09:21:51;;;;;;;7.95;5.05;;;;;;;37.34;25.13;100630.25;5073892;28;20020;-92
2022/06/03 09:24:22;;;;;;;7.05;4.93;;;;;;;35.12;25.75;100628.03;5074181;28;20059;-93
2022/06/03 09:26:52;;;;;;;12.95;5.28;;;;;;;34.75;26.49;100620.66;5074542;28;20020;-92
2022/06/03 09:29:19;;;;;;;9.25;5.32;;;;;;;34.71;26.06;100619.53;5074960;28;20115;-93
2022/06/03 09:31:49;;;;;;;10.93;5.65;;;;;;;33.84;26.32;100620.50;5065258;28;20090;-92
2022/06/03 09:34:17;;;;;;;9.20;4.30;;;;;;;34.26;27.42;100619.88;5063308;28;20081;-92
2022/06/03 09:36:42;;;;;;;5.93;4.45;;;;;;;34.94;26.48;100626.53;5065478;28;20039;-92
2022/06/03 09:39:14;;;;;;;6.82;4.60;;;;;;;35.44;24.55;100626.34;5062503;28;20032;-93
2022/06/03 09:41:43;;;;;;;6.63;5.93;;;;;;;34.59;25.45;100620.75;5069999;28;20119;-92
2022/06/03 09:44:12;;;;;;;8.35;4.28;;;;;;;34.02;27.45;100617.44;5074098;28;20035;-93
2022/06/03 09:46:39;;;;;;;5.30;4.80;;;;;;;33.34;27.48;100616.81;5074738;28;20363;-92
2022/06/03 09:49:05;;;;;;;9.15;5.40;;;;;;;32.79;27.67;100616.50;5073129;28;20020;-92
2022/06/03 09:51:56;;;;;;;10.65;5.63;;;;;;;32.47;28.33;100615.38;5072369;28;20110;-92
2022/06/03 09:54:31;;;;;;;6.77;4.47;;;;;;;30.94;30.16;100621.88;5061006;28;20817;-91
2022/06/03 09:57:05;;;;;;;8.95;5.25;;;;;;;29.99;31.54;100626.91;5072915;28;20035;-91
2022/06/03 09:59:33;;;;;;;5.80;4.18;;;;;;;29.76;32.06;100615.97;5074034;28;20036;-92
2022/06/03 10:01:58;;;;;;;7.47;5.03;;;;;;;30.56;31.58;100623.06;5065340;28;20061;-92
2022/06/03 10:04:24;;;;;;;5.93;4.50;;;;;;;30.99;30.92;100605.75;5074080;28;20434;-93
2022/06/03 10:06:50;;;;;;;4.68;4.10;;;;;;;32.50;29.30;100604.81;5072902;28;20027;-91
2022/06/03 10:15:37;;;;;;;6.95;4.15;;;;;;;34.21;26.56;100596.16;5066944;28;20113;-91
2022/06/03 10:17:33;;;;;;;9.57;5.32;;;;;;;33.04;27.80;100604.38;5069331;28;20033;-91
2022/06/03 10:19:58;;;;;;;7.10;4.93;;;;;;;31.86;29.21;100596.00;5065400;28;20021;-91
2022/06/03 10:22:24;;;;;;;8.13;4.63;;;;;;;32.01;30.19;100604.47;5059149;28;20103;-91
2022/06/03 10:24:49;;;;;;;7.40;5.18;;;;;;;30.96;30.74;100606.19;5071578;28;20437;-89
2022/06/03 10:27:18;;;;;;;6.97;3.80;;;;;;;31.40;30.24;100610.22;5055087;28;20025;-88
2022/06/03 10:29:49;;;;;;;8.55;4.55;;;;;;;30.33;31.81;100600.25;5053341;28;20074;-89
2022/06/03 10:32:18;;;;;;;7.07;4.30;;;;;;;30.14;32.30;100614.88;5053665;28;20020;-88
2022/06/03 10:34:44;;;;;;;6.35;4.00;;;;;;;30.16;31.67;100620.91;5053709;28;20467;-89
2022/06/03 10:37:15;;;;;;;8.60;4.75;;;;;;;30.63;30.11;100615.69;5053781;28;20126;-88
2022/06/03 10:39:43;;;;;;;9.52;5.57;;;;;;;30.76;30.08;100618.16;5052549;28;20106;-88
2022/06/03 10:42:13;;;;;;;6.25;3.70;;;;;;;30.58;30.00;100616.34;5053328;28;20029;-88
2022/06/03 10:44:43;;;;;;;9.13;4.15;;;;;;;29.81;31.88;100624.25;5053829;28;20082;-88
2022/06/03 10:47:17;;;;;;;8.47;3.30;;;;;;;30.91;31.61;100622.34;5053723;28;20025;-89
2022/06/03 10:49:52;;;;;;;5.38;3.25;;;;;;;32.30;29.74;100621.59;5053610;28;20037;-88
2022/06/03 11:01:27;;;;;;;4.28;2.67;;;;;;;33.62;27.84;100620.47;5072459;28;20039;-88
2022/06/03 11:03:53;;;;;;;8.43;3.47;;;;;;;32.58;28.81;100619.94;5073540;28;20390;-89
2022/06/03 11:06:25;;;;;;;4.70;2.45;;;;;;;33.00;29.76;100617.66;5072494;28;20035;-89
2022/06/03 11:08:51;;;;;;;4.60;2.38;;;;;;;32.31;28.97;100615.09;5072123;28;20234;-89
2022/06/03 11:11:38;;;;;;;4.43;2.85;;;;;;;31.26;28.73;100614.25;5071891;28;20133;-89
2022/06/03 11:14:25;;;;;;;6.50;2.90;;;;;;;31.44;28.53;100621.44;5053132;28;20369;-89
2022/06/03 11:17:17;;;;;;;4.95;2.13;;;;;;;31.73;28.17;100614.19;5054023;28;20032;-89
2022/06/03 11:19:47;;;;;;;7.28;2.92;;;;;;;31.33;29.46;100624.97;5051946;28;20059;-89
2022/06/03 11:22:24;;;;;;;4.75;2.13;;;;;;;31.18;29.91;100620.84;5068620;28;20060;-89
2022/06/03 11:24:51;;;;;;;8.27;2.53;;;;;;;30.58;29.36;100616.34;5072805;28;20027;-89
2022/06/03 11:27:20;;;;;;;7.00;3.35;;;;;;;29.92;30.88;100623.50;5072722;28;20235;-89
2022/06/03 11:29:48;;;;;;;9.38;3.35;;;;;;;29.72;30.50;100607.50;5072914;28;20028;-89
2022/06/03 11:32:17;;;;;;;5.15;2.97;;;;;;;29.40;31.72;100618.38;5072596;28;20036;-89
2022/06/03 11:34:57;;;;;;;5.47;2.67;;;;;;;29.49;31.38;100618.94;5072530;28;20351;-89
2022/06/03 11:37:28;;;;;;;4.18;2.90;;;;;;;29.05;32.39;100620.78;5072636;28;20024;-89
2022/06/03 11:40:00;;;;;;;4.32;3.20;;;;;;;27.78;32.76;100615.25;5072855;28;20124;-89
2022/06/03 11:42:25;;;;;;;6.82;3.20;;;;;;;27.10;34.92;100632.53;5072556;28;20052;-88
2022/06/03 11:44:54;;;;;;;5.57;3.10;;;;;;;27.39;35.92;100631.31;5072526;28;20056;-88
2022/06/03 11:47:27;;;;;;;5.97;2.88;;;;;;;27.01;36.25;100633.78;5071285;28;20550;-88
2022/06/03 11:49:54;;;;;;;6.53;3.33;;;;;;;26.80;37.35;100630.25;5065974;28;20032;-88
2022/06/03 11:52:21;;;;;;;7.80;3.08;;;;;;;26.81;37.05;100615.72;5063935;28;20037;-89
2022/06/03 11:54:48;;;;;;;8.70;3.58;;;;;;;26.36;37.43;100634.25;5059936;28;20052;-89
2022/06/03 11:57:13;;;;;;;5.78;3.55;;;;;;;26.18;37.36;100625.94;5067990;28;20024;-88
2022/06/03 11:59:50;;;;;;;8.43;3.28;;;;;;;26.34;38.09;100630.13;5071279;28;20095;-88
2022/06/03 12:02:38;;;;;;;6.57;3.45;;;;;;;26.40;38.34;100635.53;5071546;28;20582;-88
2022/06/03 12:05:09;;;;;;;4.53;2.72;;;;;;;27.14;35.82;100632.97;5068853;28;20444;-89
2022/06/03 12:07:56;;;;;;;7.40;2.80;;;;;;;27.20;36.35;100624.88;5061128;28;20063;-89
2022/06/03 12:10:54;;;;;;;4.85;3.00;;;;;;;27.36;36.26;100629.03;5050515;28;20112;-88
2022/06/03 12:13:28;;;;;;;5.55;2.75;;;;;;;27.07;36.90;100622.16;5065090;28;20044;-89
2022/06/03 12:15:53;;;;;;;3.70;2.22;;;;;;;27.70;35.27;100616.28;5071980;28;20025;-89
2022/06/03 12:18:31;;;;;;;3.30;2.33;;;;;;;27.88;35.63;100619.19;5071523;28;20489;-88
2022/06/03 12:21:02;;;;;;;7.60;2.90;;;;;;;28.53;35.55;100614.72;5069216;28;20431;-88
2022/06/03 12:23:28;;;;;;;3.88;2.05;;;;;;;29.04;34.03;100619.94;5071890;28;20159;-88
2022/06/03 12:25:53;;;;;;;3.78;2.30;;;;;;;27.63;34.85;100619.03;5066323;28;20122;-88
2022/06/03 12:28:37;;;;;;;4.05;2.08;;;;;;;28.59;33.85;100619.25;5069945;28;20033;-88
2022/06/03 12:31:14;;;;;;;4.15;2.67;;;;;;;28.19;33.28;100614.88;5071517;28;20029;-88
2022/06/03 12:33:58;;;;;;;4.75;2.30;;;;;;;28.51;33.55;100614.94;5072048;28;20012;-87
2022/06/03 12:36:50;;;;;;;4.28;2.33;;;;;;;28.63;32.71;100623.19;5069889;28;20024;-88
2022/06/03 12:39:54;;;;;;;5.93;2.58;;;;;;;27.62;34.38;100632.72;5070997;28;20036;-88
2022/06/03 12:42:29;;;;;;;5.07;2.35;;;;;;;28.25;33.52;100615.91;5070249;28;20032;-88
2022/06/03 12:44:57;;;;;;;3.85;2.90;;;;;;;28.38;32.85;100618.53;5070691;28;20486;-89
2022/06/03 12:47:31;;;;;;;8.88;2.80;;;;;;;28.20;33.78;100623.81;5067374;28;20044;-89
2022/06/03 12:50:03;;;;;;;2.88;2.10;;;;;;;28.30;34.26;100610.69;5070998;28;20036;-88